Time;durP1;ratioP1;P1;durP2;ratioP2;P2;SDS_P1;SDS_P2;PMS_P1;PMS_P2;Temp;Humidity;BMP_temperature;BMP_pressure;BME280_temperature;BME280_humidity;BME280_pressure;Samples;Min_cycle;Max_cycle;Signal;HPM_P1;HPM_P2
2023/01/21 00:00:41;;;;;;;9.67;4.37;;;;;;;-145.69;100.00;52697.88;5075681;28;20199;-75
2023/01/21 00:03:08;;;;;;;10.10;4.57;;;;;;;-145.69;100.00;52745.41;5074889;28;20202;-76
2023/01/21 00:05:36;;;;;;;11.07;5.10;;;;;;;-145.69;100.00;52701.84;5075507;28;20203;-75
2023/01/21 00:08:02;;;;;;;15.23;4.93;;;;;;;-145.69;100.00;52709.78;5075556;28;20214;-75
2023/01/21 00:10:29;;;;;;;10.47;4.37;;;;;;;-145.69;100.00;52707.78;5075697;28;20206;-76
2023/01/21 00:12:56;;;;;;;10.83;3.87;;;;;;;-145.69;100.00;52741.47;5075377;28;20253;-75
2023/01/21 00:15:23;;;;;;;12.90;4.67;;;;;;;-145.69;100.00;52721.66;5073911;28;20198;-75
2023/01/21 00:17:52;;;;;;;10.00;4.47;;;;;;;-145.69;100.00;52721.66;5075231;28;20202;-75
2023/01/21 00:20:19;;;;;;;8.00;4.33;;;;;;;-145.69;100.00;52733.53;5074237;28;20190;-75
2023/01/21 00:22:47;;;;;;;6.37;4.07;;;;;;;-145.69;100.00;52729.56;5075161;28;20696;-75
2023/01/21 00:25:13;;;;;;;8.80;4.40;;;;;;;-145.69;100.00;52739.47;5074861;28;20198;-76
2023/01/21 00:27:40;;;;;;;11.70;4.87;;;;;;;-145.69;100.00;52745.41;5075295;28;20218;-76
2023/01/21 00:30:09;;;;;;;10.93;4.60;;;;;;;-145.69;100.00;52721.66;5075050;28;20210;-76
2023/01/21 00:32:35;;;;;;;8.80;4.53;;;;;;;-145.69;100.00;52727.59;5074899;28;20242;-75
2023/01/21 00:35:02;;;;;;;10.23;3.80;;;;;;;-145.69;100.00;52725.63;5074854;28;20199;-75
2023/01/21 00:37:31;;;;;;;9.90;4.63;;;;;;;-145.69;100.00;52709.78;5074841;28;20285;-75
2023/01/21 00:39:59;;;;;;;8.60;4.43;;;;;;;-145.69;100.00;52721.66;5074916;28;20224;-75
2023/01/21 00:42:26;;;;;;;8.97;4.00;;;;;;;-145.69;100.00;52721.66;5074703;28;20293;-76
2023/01/21 00:44:53;;;;;;;10.02;5.28;;;;;;;-145.69;100.00;52745.41;5073448;28;20456;-76
2023/01/21 00:47:20;;;;;;;17.53;4.03;;;;;;;-145.69;100.00;52731.56;5074401;28;20286;-76
2023/01/21 00:49:46;;;;;;;10.33;4.20;;;;;;;-145.69;100.00;52719.66;5071351;28;20213;-75
2023/01/21 00:52:13;;;;;;;8.90;3.80;;;;;;;-145.69;100.00;52693.94;5074809;28;20222;-76
2023/01/21 00:54:40;;;;;;;8.40;4.07;;;;;;;-145.69;100.00;52725.63;5074639;28;20226;-76
2023/01/21 00:57:08;;;;;;;12.57;4.40;;;;;;;-145.69;100.00;52705.81;5074554;28;20245;-76
2023/01/21 00:59:37;;;;;;;8.97;4.03;;;;;;;-145.69;100.00;52723.63;5074423;28;20203;-75
2023/01/21 01:02:03;;;;;;;10.27;4.53;;;;;;;-145.69;100.00;52707.78;5074341;28;20206;-75
2023/01/21 01:04:30;;;;;;;12.13;4.60;;;;;;;-145.69;100.00;52745.41;5074201;28;20225;-75
2023/01/21 01:06:56;;;;;;;8.17;4.30;;;;;;;-145.69;100.00;52715.72;5074271;28;20210;-75
2023/01/21 01:09:26;;;;;;;9.67;4.57;;;;;;;-145.69;100.00;52697.88;5073978;28;20649;-75
2023/01/21 01:11:55;;;;;;;11.13;4.93;;;;;;;-145.69;100.00;52725.63;5074244;28;20198;-76
2023/01/21 01:14:23;;;;;;;10.63;4.60;;;;;;;-145.69;100.00;52729.56;5073689;28;20314;-75
2023/01/21 01:16:50;;;;;;;15.00;5.07;;;;;;;-145.69;100.00;52719.66;5073812;28;20195;-75
2023/01/21 01:19:17;;;;;;;11.40;4.93;;;;;;;-145.69;100.00;52739.47;5073612;28;20195;-75
2023/01/21 01:21:44;;;;;;;12.57;5.07;;;;;;;-145.69;100.00;52658.28;5074038;28;20218;-74
2023/01/21 01:24:11;;;;;;;10.87;4.93;;;;;;;-145.69;100.00;52711.75;5074150;28;20199;-75
2023/01/21 01:26:39;;;;;;;8.53;4.57;;;;;;;-145.69;100.00;52741.47;5072932;28;20561;-75
2023/01/21 01:29:06;;;;;;;10.43;4.97;;;;;;;-145.69;100.00;52711.75;5073718;28;20542;-75
2023/01/21 01:31:34;;;;;;;17.03;5.83;;;;;;;-145.69;100.00;52753.34;5073665;28;20562;-76
2023/01/21 01:34:01;;;;;;;16.25;7.93;;;;;;;-145.69;100.00;52709.78;5073081;28;20446;-75
2023/01/21 01:36:27;;;;;;;13.60;5.93;;;;;;;-145.69;100.00;52709.78;5074078;28;20199;-74
2023/01/21 01:38:54;;;;;;;12.97;5.80;;;;;;;-145.69;100.00;52719.66;5073687;28;20199;-75
2023/01/21 01:41:22;;;;;;;13.57;5.60;;;;;;;-145.69;100.00;52733.53;5073791;28;20206;-74
2023/01/21 01:44:00;;;;;;;12.77;5.93;;;;;;;-145.69;100.00;52709.78;5073448;28;20276;-75
2023/01/21 01:46:28;;;;;;;13.37;5.70;;;;;;;-145.69;100.00;52735.50;5053872;28;20203;-75
2023/01/21 01:49:05;;;;;;;10.50;6.00;;;;;;;-145.69;100.00;52721.66;5060991;28;20645;-75
2023/01/21 01:51:41;;;;;;;14.93;6.57;;;;;;;-145.69;100.00;52725.63;5073663;28;20206;-75
2023/01/21 01:54:11;;;;;;;14.60;6.63;;;;;;;-145.69;100.00;52699.88;5073331;28;20228;-76
2023/01/21 01:56:39;;;;;;;15.73;6.43;;;;;;;-145.69;100.00;52705.81;5073249;28;20214;-76
2023/01/21 01:59:06;;;;;;;15.40;7.10;;;;;;;-145.69;100.00;52701.84;5073351;28;20207;-76
2023/01/21 02:01:32;;;;;;;13.70;6.60;;;;;;;-145.69;100.00;52680.06;5072993;28;20673;-74
2023/01/21 02:04:04;;;;;;;24.57;7.07;;;;;;;-145.69;100.00;52709.78;5072979;28;20191;-74
2023/01/21 02:06:31;;;;;;;16.47;6.97;;;;;;;-145.69;100.00;52709.78;5073192;28;20566;-74
2023/01/21 02:08:58;;;;;;;15.03;7.00;;;;;;;-145.69;100.00;52687.97;5072953;28;20214;-75
2023/01/21 02:11:24;;;;;;;19.60;7.50;;;;;;;-145.69;100.00;52727.59;5073366;28;20199;-74
2023/01/21 02:13:56;;;;;;;18.53;7.03;;;;;;;-145.69;100.00;52725.63;5072854;28;20762;-74
2023/01/21 02:16:45;;;;;;;17.60;7.97;;;;;;;-145.69;100.00;52749.38;5072792;28;20277;-74
2023/01/21 02:19:42;;;;;;;16.47;6.73;;;;;;;-145.69;100.00;52715.72;5072310;28;20198;-74
2023/01/21 02:22:20;;;;;;;18.57;7.20;;;;;;;-145.69;100.00;52759.28;5070360;28;20195;-75
2023/01/21 02:25:24;;;;;;;17.97;8.07;;;;;;;-145.69;100.00;52697.88;5072966;28;20252;-76
2023/01/21 02:28:07;;;;;;;16.70;7.10;;;;;;;-145.69;100.00;52729.56;5072540;28;20705;-77
2023/01/21 02:30:46;;;;;;;15.60;7.53;;;;;;;-145.69;100.00;52725.63;5073186;28;20194;-77
2023/01/21 02:33:55;;;;;;;17.00;7.70;;;;;;;-145.69;100.00;52713.72;5072636;28;20264;-77
2023/01/21 02:36:40;;;;;;;19.27;7.80;;;;;;;-145.69;100.00;52729.56;5061641;28;20231;-76
2023/01/21 02:39:15;;;;;;;23.40;8.20;;;;;;;-145.69;100.00;52703.81;5072585;28;20208;-77
2023/01/21 02:41:53;;;;;;;23.77;7.73;;;;;;;-145.69;100.00;52709.78;5072788;28;20217;-76
2023/01/21 02:44:31;;;;;;;19.50;8.27;;;;;;;-145.69;100.00;52729.56;5072583;28;20301;-74
2023/01/21 02:47:03;;;;;;;15.20;6.83;;;;;;;-145.69;100.00;52721.66;5072880;28;20241;-75
2023/01/21 02:49:36;;;;;;;18.53;7.40;;;;;;;-145.69;100.00;52686.00;5072969;28;20260;-76
2023/01/21 02:52:02;;;;;;;19.07;6.87;;;;;;;-145.69;100.00;52727.59;5069800;28;20557;-76
2023/01/21 02:54:50;;;;;;;17.13;7.50;;;;;;;-145.69;100.00;52701.84;5072613;28;20873;-77
2023/01/21 02:57:24;;;;;;;18.67;7.50;;;;;;;-145.69;100.00;52737.50;5072837;28;20255;-75
2023/01/21 02:59:54;;;;;;;16.73;7.50;;;;;;;-145.69;100.00;52674.13;5072853;28;20210;-77
2023/01/21 03:02:37;;;;;;;22.40;7.40;;;;;;;-145.69;100.00;52761.25;5072479;28;20199;-74
2023/01/21 03:05:13;;;;;;;15.37;7.47;;;;;;;-145.69;100.00;52717.69;5072657;28;20245;-74
2023/01/21 03:07:46;;;;;;;17.90;6.97;;;;;;;-145.69;100.00;52741.47;5072293;28;20285;-74
2023/01/21 03:10:20;;;;;;;19.53;7.43;;;;;;;-145.69;100.00;52735.50;5072370;28;20555;-74
2023/01/21 03:12:53;;;;;;;17.93;7.87;;;;;;;-145.69;100.00;52737.50;5072500;28;20214;-76
2023/01/21 03:18:16;;;;;;;19.07;7.20;;;;;;;-145.69;100.00;52729.56;5072455;28;20557;-76
2023/01/21 03:20:47;;;;;;;15.73;6.73;;;;;;;-145.69;100.00;52761.25;5072359;28;20657;-76
2023/01/21 03:23:17;;;;;;;15.43;6.73;;;;;;;-145.69;100.00;52707.78;5072273;28;20191;-76
2023/01/21 03:25:47;;;;;;;17.20;6.37;;;;;;;-145.69;100.00;52737.50;5072480;28;20565;-77
2023/01/21 03:28:18;;;;;;;13.40;6.23;;;;;;;-145.69;100.00;52721.66;5072212;28;20564;-76
2023/01/21 03:30:48;;;;;;;13.67;5.83;;;;;;;-145.69;100.00;52719.66;5072379;28;20214;-76
2023/01/21 03:33:17;;;;;;;11.90;5.60;;;;;;;-145.69;100.00;52721.66;5072391;28;20225;-77
2023/01/21 03:35:49;;;;;;;11.83;5.03;;;;;;;-145.69;100.00;52741.47;5072424;28;20214;-76
2023/01/21 03:38:21;;;;;;;13.93;5.13;;;;;;;-145.69;100.00;52693.94;5071881;28;20202;-77
2023/01/21 03:40:52;;;;;;;11.00;4.90;;;;;;;-145.69;100.00;52717.69;5072185;28;20206;-76
2023/01/21 03:43:21;;;;;;;12.53;4.90;;;;;;;-145.69;100.00;52729.56;5071985;28;20243;-76
2023/01/21 03:45:54;;;;;;;9.57;5.17;;;;;;;-145.69;100.00;52725.63;5072347;28;20268;-77
2023/01/21 03:48:28;;;;;;;12.67;5.37;;;;;;;-145.69;100.00;52739.47;5072280;28;20198;-77
2023/01/21 03:50:59;;;;;;;15.97;5.10;;;;;;;-145.69;100.00;52743.44;5074515;28;20206;-76
2023/01/21 03:53:26;;;;;;;9.27;4.53;;;;;;;-145.69;100.00;52723.63;5075594;28;20206;-77
2023/01/21 03:55:57;;;;;;;10.43;4.27;;;;;;;-145.69;100.00;52741.47;5075809;28;20565;-77
2023/01/21 03:58:24;;;;;;;11.07;4.97;;;;;;;-145.69;100.00;52743.44;5075089;28;20199;-76
2023/01/21 04:00:50;;;;;;;10.70;4.77;;;;;;;-145.69;100.00;52727.59;5075621;28;20199;-77
2023/01/21 04:03:17;;;;;;;19.00;5.97;;;;;;;-145.69;100.00;52757.31;5075306;28;20667;-77
2023/01/21 04:05:45;;;;;;;13.37;5.87;;;;;;;-145.69;100.00;52727.59;5075561;28;20203;-76
2023/01/21 04:08:13;;;;;;;12.20;5.87;;;;;;;-145.69;100.00;52733.53;5075133;28;20203;-76
2023/01/21 04:10:39;;;;;;;11.27;5.30;;;;;;;-145.69;100.00;52741.47;5075381;28;20226;-76
2023/01/21 04:13:06;;;;;;;15.47;5.80;;;;;;;-145.69;100.00;52739.47;5075027;28;20195;-77
2023/01/21 04:15:32;;;;;;;12.87;5.37;;;;;;;-145.69;100.00;52721.66;5074980;28;20225;-77
2023/01/21 04:17:59;;;;;;;13.83;5.47;;;;;;;-145.69;100.00;52713.72;5075086;28;20293;-76
2023/01/21 04:20:26;;;;;;;11.77;5.27;;;;;;;-145.69;100.00;52749.38;5075150;28;20643;-77
2023/01/21 04:22:52;;;;;;;11.47;4.87;;;;;;;-145.69;100.00;52709.78;5075727;28;20225;-77
2023/01/21 04:25:22;;;;;;;15.00;6.88;;;;;;;-145.69;100.00;52749.38;5074703;28;20442;-77
2023/01/21 04:27:48;;;;;;;11.63;5.27;;;;;;;-145.69;100.00;52741.47;5075203;28;20207;-77
2023/01/21 04:30:17;;;;;;;10.63;5.13;;;;;;;-145.69;100.00;52705.81;5075089;28;20199;-76
2023/01/21 04:32:46;;;;;;;11.57;4.63;;;;;;;-145.69;100.00;52713.72;5074684;28;20217;-77
2023/01/21 04:35:13;;;;;;;9.93;4.30;;;;;;;-145.69;100.00;52705.81;5075003;28;20381;-77
2023/01/21 04:37:39;;;;;;;10.53;4.53;;;;;;;-145.69;100.00;52781.06;5074888;28;20194;-77
2023/01/21 04:40:07;;;;;;;8.10;4.03;;;;;;;-145.69;100.00;52715.72;5074837;28;20202;-76
2023/01/21 04:42:35;;;;;;;10.63;3.90;;;;;;;-145.69;100.00;52747.41;5074492;28;20761;-76
2023/01/21 04:45:01;;;;;;;9.83;4.23;;;;;;;-145.69;100.00;52737.50;5074684;28;20229;-76
2023/01/21 04:47:28;;;;;;;15.53;5.03;;;;;;;-145.69;100.00;52701.84;5074341;28;20202;-77
2023/01/21 04:49:57;;;;;;;13.17;5.10;;;;;;;-145.69;100.00;52729.56;5074823;28;20553;-76
2023/01/21 04:52:24;;;;;;;9.03;4.47;;;;;;;-145.69;100.00;52749.38;5071813;28;20207;-77
2023/01/21 04:54:53;;;;;;;11.07;5.03;;;;;;;-145.69;100.00;52717.69;5074545;28;20234;-76
2023/01/21 04:57:19;;;;;;;9.80;4.50;;;;;;;-145.69;100.00;52707.78;5074431;28;20199;-77
2023/01/21 04:59:47;;;;;;;11.07;4.87;;;;;;;-145.69;100.00;52727.59;5074362;28;20349;-76
2023/01/21 05:02:14;;;;;;;9.90;4.10;;;;;;;-145.69;100.00;52741.47;5073203;28;20572;-76
2023/01/21 05:04:40;;;;;;;9.37;4.50;;;;;;;-145.69;100.00;52747.41;5074329;28;20202;-76
2023/01/21 05:07:07;;;;;;;8.80;4.40;;;;;;;-145.69;100.00;52741.47;5074146;28;20208;-77
2023/01/21 05:09:34;;;;;;;9.47;4.47;;;;;;;-145.69;100.00;52721.66;5074218;28;20195;-77
2023/01/21 05:12:00;;;;;;;9.97;4.57;;;;;;;-145.69;100.00;52741.47;5074175;28;20219;-76
2023/01/21 05:14:27;;;;;;;11.60;4.43;;;;;;;-145.69;100.00;52737.50;5074148;28;20227;-77
2023/01/21 05:16:55;;;;;;;10.90;5.20;;;;;;;-145.69;100.00;52763.25;5074266;28;20203;-76
2023/01/21 05:19:21;;;;;;;15.40;4.67;;;;;;;-145.69;100.00;52775.13;5073915;28;20202;-76
2023/01/21 05:21:48;;;;;;;8.70;4.67;;;;;;;-145.69;100.00;52709.78;5073875;28;20661;-76
2023/01/21 05:24:14;;;;;;;15.98;6.25;;;;;;;-145.69;100.00;52729.56;5073199;28;20445;-76
2023/01/21 05:26:42;;;;;;;12.83;4.90;;;;;;;-145.69;100.00;52751.34;5073831;28;20202;-76
2023/01/21 05:29:08;;;;;;;8.47;3.67;;;;;;;-145.69;100.00;52757.31;5073592;28;20195;-76
2023/01/21 05:31:35;;;;;;;8.80;3.97;;;;;;;-145.69;100.00;52717.69;5073705;28;20653;-76
2023/01/21 05:34:03;;;;;;;11.40;4.97;;;;;;;-145.69;100.00;52733.53;5073676;28;20194;-76
2023/01/21 05:36:33;;;;;;;11.83;4.83;;;;;;;-145.69;100.00;52733.53;5073581;28;20256;-76
2023/01/21 05:38:59;;;;;;;9.17;4.23;;;;;;;-145.69;100.00;52729.56;5073368;28;20199;-76
2023/01/21 05:41:26;;;;;;;11.70;4.40;;;;;;;-145.69;100.00;52749.38;5073624;28;20281;-76
2023/01/21 05:43:52;;;;;;;11.03;4.77;;;;;;;-145.69;100.00;52717.69;5073135;28;20574;-76
2023/01/21 05:46:19;;;;;;;8.87;4.17;;;;;;;-145.69;100.00;52723.63;5073678;28;20551;-76
2023/01/21 05:48:46;;;;;;;9.90;4.13;;;;;;;-145.69;100.00;52773.16;5072998;28;20574;-76
2023/01/21 05:51:13;;;;;;;8.00;3.73;;;;;;;-145.69;100.00;52711.75;5073457;28;20267;-75
2023/01/21 05:53:40;;;;;;;8.83;4.10;;;;;;;-145.69;100.00;52749.38;5073349;28;20220;-76
2023/01/21 05:56:07;;;;;;;15.77;4.97;;;;;;;-145.69;100.00;52753.34;5072942;28;20227;-76
2023/01/21 05:58:34;;;;;;;8.47;4.03;;;;;;;-145.69;100.00;52745.41;5073479;28;20237;-76
2023/01/21 06:01:00;;;;;;;9.57;4.50;;;;;;;-145.69;100.00;52717.69;5073237;28;20653;-76
2023/01/21 06:03:27;;;;;;;10.97;4.50;;;;;;;-145.69;100.00;52729.56;5073331;28;20225;-76
2023/01/21 06:05:56;;;;;;;10.10;3.83;;;;;;;-145.69;100.00;52727.59;5073301;28;20213;-76
2023/01/21 06:08:24;;;;;;;7.43;3.57;;;;;;;-145.69;100.00;52743.44;5072903;28;20199;-76
2023/01/21 06:10:53;;;;;;;9.73;4.10;;;;;;;-145.69;100.00;52737.50;5073013;28;20203;-76
2023/01/21 06:13:20;;;;;;;13.30;4.43;;;;;;;-145.69;100.00;52717.69;5072817;28;20252;-76
2023/01/21 06:15:46;;;;;;;12.63;4.73;;;;;;;-145.69;100.00;52717.69;5073223;28;20230;-76
2023/01/21 06:18:13;;;;;;;10.53;4.00;;;;;;;-145.69;100.00;52717.69;5072940;28;20194;-76
2023/01/21 06:20:40;;;;;;;9.83;4.13;;;;;;;-145.69;100.00;52725.63;5073008;28;20202;-76
2023/01/21 06:23:06;;;;;;;7.87;4.00;;;;;;;-145.69;100.00;52737.50;5072795;28;20298;-76
2023/01/21 06:25:34;;;;;;;10.90;4.83;;;;;;;-145.69;100.00;52725.63;5072530;28;20281;-76
2023/01/21 06:28:01;;;;;;;10.67;4.00;;;;;;;-145.69;100.00;52745.41;5072978;28;20566;-76
2023/01/21 06:30:28;;;;;;;13.33;4.77;;;;;;;-145.69;100.00;52705.81;5072951;28;20194;-76
2023/01/21 06:32:54;;;;;;;10.40;3.93;;;;;;;-145.69;100.00;52749.38;5072895;28;20297;-76
2023/01/21 06:35:21;;;;;;;8.90;3.90;;;;;;;-145.69;100.00;52753.34;5072635;28;20226;-76
2023/01/21 06:37:47;;;;;;;7.13;3.33;;;;;;;-145.69;100.00;52709.78;5072425;28;20227;-76
2023/01/21 06:40:14;;;;;;;6.83;3.13;;;;;;;-145.69;100.00;52729.56;5073168;28;20215;-76
2023/01/21 06:42:45;;;;;;;6.00;3.00;;;;;;;-145.69;100.00;52749.38;5072672;28;20198;-75
2023/01/21 06:45:11;;;;;;;6.33;3.00;;;;;;;-145.69;100.00;52745.41;5072644;28;20231;-76
2023/01/21 06:47:39;;;;;;;7.07;3.10;;;;;;;-145.69;100.00;52737.50;5072710;28;20209;-76
2023/01/21 06:50:07;;;;;;;6.60;3.13;;;;;;;-145.69;100.00;52731.56;5072781;28;20206;-76
2023/01/21 06:52:33;;;;;;;8.87;3.23;;;;;;;-145.69;100.00;52761.25;5072775;28;20221;-76
2023/01/21 06:55:00;;;;;;;7.80;3.10;;;;;;;-145.69;100.00;52729.56;5070072;28;22115;-76
2023/01/21 06:57:26;;;;;;;8.13;3.23;;;;;;;-145.69;100.00;52733.53;5053077;28;20705;-76
2023/01/21 06:59:54;;;;;;;9.32;5.50;;;;;;;-145.69;100.00;52721.66;5051750;28;20467;-76
2023/01/21 07:02:21;;;;;;;6.80;3.90;;;;;;;-145.69;100.00;52741.47;5052471;28;20206;-76
2023/01/21 07:04:49;;;;;;;7.03;3.10;;;;;;;-145.69;100.00;52687.97;5052554;28;20203;-76
2023/01/21 07:07:16;;;;;;;6.03;3.17;;;;;;;-145.69;100.00;52749.38;5057252;28;20195;-77
2023/01/21 07:09:50;;;;;;;7.20;3.20;;;;;;;-145.69;100.00;52727.59;5072780;28;20247;-76
2023/01/21 07:12:17;;;;;;;7.83;3.37;;;;;;;-145.69;100.00;52745.41;5072535;28;20226;-76
2023/01/21 07:14:44;;;;;;;7.03;3.07;;;;;;;-145.69;100.00;52773.16;5072245;28;20199;-76
2023/01/21 07:17:12;;;;;;;9.77;4.00;;;;;;;-145.69;100.00;52773.16;5072033;28;20198;-76
2023/01/21 07:19:38;;;;;;;7.87;3.83;;;;;;;-145.69;100.00;52725.63;5072347;28;20285;-76
2023/01/21 07:22:05;;;;;;;9.93;4.57;;;;;;;-145.69;100.00;52721.66;5072303;28;20202;-75
2023/01/21 07:24:31;;;;;;;10.50;4.83;;;;;;;-145.69;100.00;52765.22;5072322;28;20278;-76
2023/01/21 07:27:00;;;;;;;7.73;3.43;;;;;;;-145.69;100.00;52729.56;5076307;28;20202;-76
2023/01/21 07:29:28;;;;;;;5.83;3.47;;;;;;;-145.69;100.00;52761.25;5076197;28;20221;-76
2023/01/21 07:31:54;;;;;;;6.60;3.53;;;;;;;-145.69;100.00;52753.34;5076094;28;20695;-76
2023/01/21 07:34:22;;;;;;;9.17;3.80;;;;;;;-145.69;100.00;52697.88;5075855;28;20199;-76
2023/01/21 07:36:49;;;;;;;10.70;3.87;;;;;;;-145.69;100.00;52697.88;5076228;28;20227;-76
2023/01/21 07:39:15;;;;;;;8.77;4.33;;;;;;;-145.69;100.00;52723.63;5075792;28;20658;-76
2023/01/21 07:41:42;;;;;;;10.70;3.60;;;;;;;-145.69;100.00;52729.56;5076080;28;20205;-76
2023/01/21 07:44:08;;;;;;;11.80;3.90;;;;;;;-145.69;100.00;52701.84;5075875;28;20245;-76
2023/01/21 07:46:35;;;;;;;10.07;4.23;;;;;;;-145.69;100.00;52747.41;5075510;28;20195;-76
2023/01/21 07:49:01;;;;;;;7.83;4.23;;;;;;;-145.69;100.00;52775.13;5075300;28;20224;-76
2023/01/21 07:51:29;;;;;;;16.50;4.33;;;;;;;-145.69;100.00;52687.97;5075790;28;20207;-76
2023/01/21 07:53:57;;;;;;;11.50;4.97;;;;;;;-145.69;100.00;52713.72;5075236;28;20195;-76
2023/01/21 07:56:25;;;;;;;10.67;4.97;;;;;;;-145.69;100.00;52719.66;5075579;28;20230;-76
2023/01/21 07:58:51;;;;;;;7.60;4.27;;;;;;;-145.69;100.00;52735.50;5074962;28;20195;-76
2023/01/21 08:01:18;;;;;;;9.83;4.50;;;;;;;-145.69;100.00;52725.63;5075400;28;20199;-76
2023/01/21 08:03:44;;;;;;;9.67;4.50;;;;;;;-145.69;100.00;52703.81;5075375;28;20195;-76
2023/01/21 08:06:11;;;;;;;10.93;4.93;;;;;;;-145.69;100.00;52709.78;5075645;28;20226;-76
2023/01/21 08:08:38;;;;;;;9.30;4.70;;;;;;;-145.69;100.00;52725.63;5075240;28;20206;-76
2023/01/21 08:11:05;;;;;;;7.63;3.80;;;;;;;-145.69;100.00;52747.41;5075342;28;20206;-75
2023/01/21 08:13:31;;;;;;;13.83;4.60;;;;;;;-145.69;100.00;52697.88;5075242;28;20585;-77
2023/01/21 08:16:00;;;;;;;9.80;4.07;;;;;;;-145.69;100.00;52765.22;5074758;28;20222;-76
2023/01/21 08:18:26;;;;;;;9.03;4.37;;;;;;;-145.69;100.00;52737.50;5075537;28;20213;-76
2023/01/21 08:20:56;;;;;;;14.37;4.73;;;;;;;-145.69;100.00;52701.84;5074866;28;20197;-75
2023/01/21 08:23:23;;;;;;;77.20;19.53;;;;;;;-145.69;100.00;52705.81;5074861;28;20218;-76
2023/01/21 08:25:52;;;;;;;39.17;12.33;;;;;;;-145.69;100.00;52705.81;5074941;28;20195;-76
2023/01/21 08:28:18;;;;;;;23.77;10.13;;;;;;;-145.69;100.00;52731.56;5074793;28;20216;-76
2023/01/21 08:30:45;;;;;;;24.17;9.90;;;;;;;-145.69;100.00;52711.75;5074873;28;20298;-76
2023/01/21 08:33:12;;;;;;;16.83;7.60;;;;;;;-145.69;100.00;52701.84;5075012;28;20207;-76
2023/01/21 08:35:39;;;;;;;18.63;7.13;;;;;;;-145.69;100.00;52707.78;5074603;28;20276;-76
2023/01/21 08:38:05;;;;;;;15.93;7.07;;;;;;;-145.69;100.00;52731.56;5074900;28;20206;-75
2023/01/21 08:40:35;;;;;;;13.97;6.33;;;;;;;-145.69;100.00;52713.72;5074843;28;20225;-76
2023/01/21 08:43:06;;;;;;;15.87;6.13;;;;;;;-145.69;100.00;52737.50;5074987;28;20203;-75
2023/01/21 08:45:32;;;;;;;15.90;6.87;;;;;;;-145.69;100.00;52741.47;5074644;28;20202;-77
2023/01/21 08:47:58;;;;;;;15.40;7.00;;;;;;;-145.69;100.00;52715.72;5071642;28;20206;-75
2023/01/21 08:50:25;;;;;;;18.07;7.97;;;;;;;-145.69;100.00;52719.66;5074644;28;20195;-76
2023/01/21 08:52:52;;;;;;;15.47;7.73;;;;;;;-145.69;100.00;52739.47;5074506;28;20213;-77
2023/01/21 08:55:19;;;;;;;19.10;9.60;;;;;;;-145.69;100.00;52725.63;5074003;28;20210;-76
2023/01/21 08:57:46;;;;;;;17.03;9.13;;;;;;;-145.69;100.00;52709.78;5074874;28;20215;-76
2023/01/21 09:00:15;;;;;;;15.70;8.40;;;;;;;-145.69;100.00;52697.88;5074300;28;20675;-78
2023/01/21 09:02:41;;;;;;;15.70;8.27;;;;;;;-145.69;100.00;52741.47;5067269;28;20206;-77
2023/01/21 09:05:08;;;;;;;20.17;8.63;;;;;;;-145.69;100.00;52737.50;5073882;28;20831;-76
2023/01/21 09:07:34;;;;;;;14.07;6.83;;;;;;;-145.69;100.00;52687.97;5073898;28;20561;-76
2023/01/21 09:10:01;;;;;;;17.63;7.80;;;;;;;-145.69;100.00;52713.72;5073920;28;20209;-77
2023/01/21 09:12:28;;;;;;;19.13;8.17;;;;;;;-145.69;100.00;52697.88;5074087;28;20198;-76
2023/01/21 09:14:54;;;;;;;15.80;8.03;;;;;;;-145.69;100.00;52709.78;5073575;28;20759;-76
2023/01/21 09:17:22;;;;;;;15.97;8.50;;;;;;;-145.69;100.00;52721.66;5073998;28;20245;-76
2023/01/21 09:19:49;;;;;;;19.03;7.80;;;;;;;-145.69;100.00;52705.81;5073615;28;20217;-76
2023/01/21 09:22:15;;;;;;;22.70;10.70;;;;;;;-145.69;100.00;52731.56;5073134;28;20442;-77
2023/01/21 09:24:42;;;;;;;21.40;9.30;;;;;;;-145.69;100.00;52723.63;5073996;28;20202;-76
2023/01/21 09:27:10;;;;;;;22.07;9.70;;;;;;;-145.69;100.00;52662.22;5073818;28;20217;-77
2023/01/21 09:29:36;;;;;;;23.77;10.77;;;;;;;-145.69;100.00;52709.78;5073706;28;20209;-76
2023/01/21 09:32:04;;;;;;;21.13;9.27;;;;;;;-145.69;100.00;52695.91;5073608;28;20623;-77
2023/01/21 09:34:32;;;;;;;25.70;9.93;;;;;;;-145.69;100.00;52715.72;5073569;28;20613;-78
2023/01/21 09:36:58;;;;;;;31.43;11.50;;;;;;;-145.69;100.00;52753.34;5073065;28;20227;-77
2023/01/21 09:39:25;;;;;;;31.17;13.33;;;;;;;-145.69;100.00;52707.78;5073781;28;20202;-76
2023/01/21 09:41:54;;;;;;;34.23;16.77;;;;;;;-145.69;100.00;52701.84;5073444;28;20199;-76
2023/01/21 09:44:25;;;;;;;29.37;14.10;;;;;;;-145.69;100.00;52729.56;5073319;28;20227;-76
2023/01/21 09:46:58;;;;;;;26.07;11.57;;;;;;;-145.69;100.00;52678.09;5072920;28;20203;-78
2023/01/21 09:49:28;;;;;;;22.77;10.60;;;;;;;-145.69;100.00;52721.66;5072867;28;20560;-76
2023/01/21 09:52:03;;;;;;;24.30;11.37;;;;;;;-145.69;100.00;52709.78;5073337;28;20220;-78
2023/01/21 09:54:31;;;;;;;21.60;11.27;;;;;;;-145.69;100.00;52703.81;5073350;28;20195;-76
2023/01/21 09:57:17;;;;;;;29.93;13.13;;;;;;;-145.69;100.00;52719.66;5072985;28;20266;-77
2023/01/21 10:00:00;;;;;;;25.40;10.97;;;;;;;-145.69;100.00;52674.13;5072977;28;20194;-77
2023/01/21 10:02:32;;;;;;;21.87;10.60;;;;;;;-145.69;100.00;52697.88;5073250;28;20562;-77
2023/01/21 10:05:20;;;;;;;21.63;9.93;;;;;;;-145.69;100.00;52693.94;5072493;28;20195;-76
2023/01/21 10:07:57;;;;;;;20.77;9.77;;;;;;;-145.69;100.00;52725.63;5072815;28;20650;-76
2023/01/21 10:10:32;;;;;;;23.30;10.43;;;;;;;-145.69;100.00;52701.84;5072940;28;20209;-76
2023/01/21 10:13:09;;;;;;;25.27;10.47;;;;;;;-145.69;100.00;52731.56;5072772;28;20194;-76
2023/01/21 10:15:56;;;;;;;31.67;12.47;;;;;;;-145.69;100.00;52674.13;5072478;28;20208;-75
2023/01/21 10:18:26;;;;;;;31.23;12.17;;;;;;;-145.69;100.00;52695.91;5072968;28;20233;-77
2023/01/21 10:20:57;;;;;;;29.40;13.33;;;;;;;-145.69;100.00;52703.81;5072656;28;20203;-76
2023/01/21 10:23:28;;;;;;;47.57;14.10;;;;;;;-145.69;100.00;52719.66;5072944;28;20198;-78
2023/01/21 10:25:58;;;;;;;29.90;13.43;;;;;;;-145.69;100.00;52713.72;5072963;28;20203;-77
2023/01/21 10:28:29;;;;;;;29.87;12.67;;;;;;;-145.69;100.00;52678.09;5072955;28;20222;-77
2023/01/21 10:31:01;;;;;;;30.00;12.57;;;;;;;-145.69;100.00;52693.94;5072774;28;20257;-77
2023/01/21 10:33:32;;;;;;;28.83;12.33;;;;;;;-145.69;100.00;52682.03;5073179;28;20194;-77
2023/01/21 10:36:24;;;;;;;32.07;12.30;;;;;;;-145.69;100.00;52668.19;5072481;28;20219;-76
2023/01/21 10:39:01;;;;;;;29.73;11.83;;;;;;;-145.69;100.00;52705.81;5072858;28;20202;-76
2023/01/21 10:41:40;;;;;;;33.27;13.83;;;;;;;-145.69;100.00;52713.72;5072427;28;20552;-76
2023/01/21 10:44:17;;;;;;;32.37;14.20;;;;;;;-145.69;100.00;52705.81;5072628;28;20226;-76
2023/01/21 10:46:49;;;;;;;31.30;13.37;;;;;;;-145.69;100.00;52687.97;5072378;28;20198;-76
2023/01/21 10:49:44;;;;;;;33.20;12.17;;;;;;;-145.69;100.00;52693.94;5071924;28;20198;-76
2023/01/21 10:52:23;;;;;;;24.43;10.20;;;;;;;-145.69;100.00;52686.00;5072966;28;20590;-76
2023/01/21 10:54:59;;;;;;;26.00;10.27;;;;;;;-145.69;100.00;52697.88;5072800;28;20206;-75
2023/01/21 10:57:51;;;;;;;53.70;19.60;;;;;;;-145.69;100.00;52705.81;5072304;28;20237;-76
2023/01/21 11:00:22;;;;;;;36.93;13.83;;;;;;;-145.69;100.00;52709.78;5075565;28;20195;-75
2023/01/21 11:02:54;;;;;;;38.70;14.07;;;;;;;-145.69;100.00;52682.03;5076756;28;20198;-74
2023/01/21 11:05:45;;;;;;;47.37;17.03;;;;;;;-145.69;100.00;52678.09;5076783;28;20199;-74
2023/01/21 11:08:21;;;;;;;37.70;13.07;;;;;;;-145.69;100.00;52693.94;5076652;28;20713;-77
2023/01/21 11:10:54;;;;;;;40.33;14.00;;;;;;;-145.69;100.00;52697.88;5076103;28;20229;-76
2023/01/21 11:13:21;;;;;;;51.10;15.37;;;;;;;-145.69;100.00;52715.72;5076388;28;20234;-75
2023/01/21 11:15:52;;;;;;;45.93;14.40;;;;;;;-145.69;100.00;52695.91;5075688;28;20553;-76